createdAt,value
2023-05-19T00:01:33.301Z,3.87
2023-05-19T00:04:02.820Z,4.10
2023-05-19T00:06:32.588Z,3.57
2023-05-19T00:09:03.096Z,3.67
2023-05-19T00:11:31.390Z,3.87
2023-05-19T00:14:00.740Z,3.33
2023-05-19T00:16:30.936Z,3.57
2023-05-19T00:19:00.142Z,4.13
2023-05-19T00:21:28.271Z,4.10
2023-05-19T00:23:56.326Z,3.87
2023-05-19T00:26:24.458Z,4.30
2023-05-19T00:28:52.252Z,4.40
2023-05-19T00:31:20.266Z,4.20
2023-05-19T00:33:49.316Z,4.27
2023-05-19T00:36:17.099Z,4.10
2023-05-19T00:38:44.766Z,4.07
2023-05-19T00:41:12.822Z,4.17
2023-05-19T00:43:40.475Z,4.33
2023-05-19T00:46:08.264Z,4.20
2023-05-19T00:48:35.979Z,4.50
2023-05-19T00:51:06.614Z,4.43
2023-05-19T00:53:35.728Z,4.33
2023-05-19T00:56:04.451Z,4.23
2023-05-19T00:58:32.714Z,4.77
2023-05-19T01:01:03.651Z,4.33
2023-05-19T01:03:35.027Z,4.43
2023-05-19T01:06:05.886Z,4.73
2023-05-19T01:08:34.208Z,4.20
2023-05-19T01:11:02.017Z,4.97
2023-05-19T01:13:30.298Z,4.43
2023-05-19T01:16:02.654Z,4.27
2023-05-19T01:18:40.304Z,4.40
2023-05-19T01:21:44.456Z,4.07
2023-05-19T01:24:32.370Z,4.50
2023-05-19T01:27:28.745Z,3.97
2023-05-19T01:30:34.810Z,4.20
2023-05-19T01:33:06.621Z,3.90
2023-05-19T01:35:36.437Z,4.60
2023-05-19T01:38:06.178Z,4.00
2023-05-19T01:40:34.667Z,4.07
2023-05-19T01:43:03.213Z,4.80
2023-05-19T01:45:34.117Z,4.37
2023-05-19T01:48:04.403Z,4.43
2023-05-19T01:50:34.944Z,4.80
2023-05-19T01:53:02.951Z,4.37
2023-05-19T01:55:30.889Z,5.13
2023-05-19T01:58:07.916Z,4.47
2023-05-19T02:00:50.452Z,4.10
2023-05-19T02:03:30.696Z,4.37
2023-05-19T02:06:06.843Z,4.67
2023-05-19T02:08:42.505Z,4.10
2023-05-19T02:11:15.906Z,4.40
2023-05-19T02:13:46.330Z,3.73
2023-05-19T02:16:17.534Z,4.30
2023-05-19T02:18:48.065Z,3.93
2023-05-19T02:21:16.119Z,4.20
2023-05-19T02:23:43.819Z,4.43
2023-05-19T02:26:11.458Z,4.10
2023-05-19T02:28:39.128Z,4.20
2023-05-19T02:31:08.951Z,3.93
2023-05-19T02:33:38.008Z,4.37
2023-05-19T02:36:06.517Z,4.40
2023-05-19T02:38:34.184Z,3.87
2023-05-19T02:41:01.834Z,4.43
2023-05-19T02:43:30.595Z,4.03
2023-05-19T02:45:58.388Z,4.40
2023-05-19T02:48:26.101Z,4.57
2023-05-19T02:50:55.157Z,4.37
2023-05-19T02:53:22.798Z,3.63
2023-05-19T02:55:50.499Z,3.67
2023-05-19T02:58:18.679Z,4.60
2023-05-19T03:00:46.376Z,4.00
2023-05-19T03:03:15.057Z,4.40
2023-05-19T03:05:42.923Z,3.70
2023-05-19T03:08:11.990Z,4.03
2023-05-19T03:10:39.721Z,4.57
2023-05-19T03:13:07.410Z,4.40
2023-05-19T03:15:36.545Z,4.33
2023-05-19T03:18:04.364Z,4.33
2023-05-19T03:20:32.251Z,4.63
2023-05-19T03:23:00.016Z,4.30
2023-05-19T03:25:30.027Z,4.30
2023-05-19T03:27:57.732Z,4.00
2023-05-19T03:30:25.399Z,4.43
2023-05-19T03:32:53.276Z,3.90
2023-05-19T03:35:21.231Z,4.43
2023-05-19T03:37:48.938Z,4.30
2023-05-19T03:40:18.820Z,4.53
2023-05-19T03:42:47.846Z,4.27
2023-05-19T03:45:15.673Z,4.50
2023-05-19T03:47:43.419Z,4.20
2023-05-19T03:50:11.736Z,4.60
2023-05-19T03:52:39.774Z,4.30
2023-05-19T03:55:08.650Z,4.47
2023-05-19T03:57:36.352Z,4.57
2023-05-19T04:00:07.051Z,4.10
2023-05-19T04:02:34.888Z,5.43
2023-05-19T04:05:04.870Z,5.63
2023-05-19T04:07:32.624Z,5.67
2023-05-19T04:10:00.569Z,4.93
2023-05-19T04:12:28.261Z,5.90
2023-05-19T04:14:55.968Z,4.93
2023-05-19T04:17:26.385Z,5.00
2023-05-19T04:19:54.356Z,5.27
2023-05-19T04:22:22.021Z,5.77
2023-05-19T04:24:50.583Z,5.60
2023-05-19T04:27:18.349Z,5.30
2023-05-19T04:29:48.295Z,4.93
2023-05-19T04:32:17.645Z,5.60
2023-05-19T04:34:46.970Z,5.53
2023-05-19T04:37:16.147Z,4.37
2023-05-19T04:39:45.342Z,5.47
2023-05-19T04:42:13.321Z,5.83
2023-05-19T04:44:41.062Z,5.07
2023-05-19T04:47:09.190Z,5.53
2023-05-19T04:49:39.529Z,5.90
2023-05-19T04:52:10.912Z,6.23
2023-05-19T04:54:39.716Z,5.73
2023-05-19T04:57:07.776Z,5.83
2023-05-19T04:59:35.433Z,6.10
2023-05-19T05:02:04.249Z,6.20
2023-05-19T05:04:32.475Z,5.87
2023-05-19T05:07:00.182Z,5.70
2023-05-19T05:09:29.285Z,5.30
2023-05-19T05:11:57.473Z,5.87
2023-05-19T05:14:25.728Z,5.77
2023-05-19T05:16:54.146Z,6.53
2023-05-19T05:19:23.116Z,5.73
2023-05-19T05:21:52.131Z,5.43
2023-05-19T05:24:20.546Z,6.10
2023-05-19T05:26:50.104Z,5.77
2023-05-19T05:29:17.780Z,5.40
2023-05-19T05:31:45.477Z,5.60
2023-05-19T05:34:13.266Z,6.10
2023-05-19T05:36:41.328Z,5.17
2023-05-19T05:39:09.006Z,4.90
2023-05-19T05:41:36.722Z,5.73
2023-05-19T05:44:06.360Z,5.03
2023-05-19T05:46:34.111Z,5.67
2023-05-19T05:49:02.399Z,5.80
2023-05-19T05:51:32.829Z,5.50
2023-05-19T05:54:02.417Z,5.10
2023-05-19T05:56:30.614Z,4.80
2023-05-19T05:58:58.627Z,4.67
2023-05-19T06:01:28.145Z,4.73
2023-05-19T06:03:55.820Z,4.90
2023-05-19T06:06:23.462Z,5.03
2023-05-19T06:08:51.134Z,4.87
2023-05-19T06:11:19.661Z,4.50
2023-05-19T06:13:47.443Z,5.57
2023-05-19T06:16:15.161Z,4.37
2023-05-19T06:18:44.318Z,4.07
2023-05-19T06:21:13.253Z,4.90
2023-05-19T06:23:41.095Z,4.40
2023-05-19T06:26:08.770Z,4.47
2023-05-19T06:28:36.452Z,3.87
2023-05-19T06:31:04.296Z,4.23
2023-05-19T06:33:31.983Z,4.57
2023-05-19T06:36:01.083Z,4.20
2023-05-19T06:38:28.852Z,4.07
2023-05-19T06:40:56.681Z,4.60
2023-05-19T06:43:25.728Z,3.80
2023-05-19T06:45:53.456Z,3.73
2023-05-19T06:48:21.136Z,4.10
2023-05-19T06:50:48.928Z,4.23
2023-05-19T06:53:18.062Z,4.17
2023-05-19T06:55:58.075Z,3.87
2023-05-19T06:58:27.316Z,3.53
2023-05-19T07:00:55.315Z,3.60
2023-05-19T07:03:23.459Z,3.90
2023-05-19T07:05:51.431Z,3.95
2023-05-19T07:08:20.471Z,3.22
2023-05-19T07:10:48.257Z,3.80
2023-05-19T07:13:16.313Z,3.17
2023-05-19T07:15:44.010Z,3.35
2023-05-19T07:18:11.709Z,2.90
2023-05-19T07:20:39.394Z,3.13
2023-05-19T07:23:07.202Z,3.22
2023-05-19T07:25:36.330Z,3.45
2023-05-19T07:28:04.189Z,3.10
2023-05-19T07:30:32.127Z,3.58
2023-05-19T07:33:00.070Z,2.90
2023-05-19T07:35:27.916Z,3.33
2023-05-19T07:37:55.584Z,3.50
2023-05-19T07:40:23.231Z,2.85
2023-05-19T07:42:53.423Z,3.30
2023-05-19T07:45:21.234Z,2.83
2023-05-19T07:47:48.920Z,2.95
2023-05-19T07:50:17.382Z,3.05
2023-05-19T07:52:45.065Z,2.90
2023-05-19T07:55:13.542Z,3.28
2023-05-19T07:57:41.522Z,3.15
2023-05-19T08:00:11.907Z,3.30
2023-05-19T08:02:39.760Z,3.28
2023-05-19T08:05:09.224Z,3.60
2023-05-19T08:07:37.136Z,3.53
2023-05-19T08:10:05.388Z,3.42
2023-05-19T08:12:33.051Z,3.17
2023-05-19T08:15:01.847Z,2.85
2023-05-19T08:17:31.149Z,3.20
2023-05-19T08:19:58.831Z,3.03
2023-05-19T08:22:26.712Z,3.35
2023-05-19T08:24:54.411Z,2.95
2023-05-19T08:27:22.067Z,3.20
2023-05-19T08:29:49.808Z,3.33
2023-05-19T08:32:17.975Z,3.10
2023-05-19T08:34:46.972Z,3.17
2023-05-19T08:37:14.657Z,3.17
2023-05-19T08:39:42.371Z,3.40
2023-05-19T08:42:10.208Z,3.35
2023-05-19T08:44:40.053Z,3.10
2023-05-19T08:47:13.871Z,3.30
2023-05-19T08:49:45.844Z,3.03
2023-05-19T08:52:25.427Z,3.05
2023-05-19T08:55:00.820Z,3.30
2023-05-19T08:57:29.672Z,3.53
2023-05-19T08:59:59.485Z,3.15
2023-05-19T09:02:28.392Z,3.00
2023-05-19T09:04:57.803Z,3.40
2023-05-19T09:07:27.977Z,2.53
2023-05-19T09:09:56.440Z,3.15
2023-05-19T09:12:24.372Z,2.97
2023-05-19T09:14:52.261Z,3.13
2023-05-19T09:17:19.908Z,3.00
2023-05-19T09:19:49.625Z,2.95
2023-05-19T09:22:19.259Z,3.08
2023-05-19T09:24:48.468Z,3.00
2023-05-19T09:27:22.124Z,3.10
2023-05-19T09:29:49.852Z,2.88
2023-05-19T09:32:26.201Z,3.30
2023-05-19T09:34:55.063Z,3.20
2023-05-19T09:37:24.338Z,3.42
2023-05-19T09:39:54.465Z,2.90
2023-05-19T09:42:26.868Z,3.20
2023-05-19T09:45:01.260Z,3.08
2023-05-19T09:47:29.173Z,3.28
2023-05-19T09:49:58.521Z,2.72
2023-05-19T09:52:27.332Z,2.88
2023-05-19T09:54:57.928Z,2.88
2023-05-19T09:57:26.861Z,3.42
2023-05-19T09:59:57.138Z,2.95
2023-05-19T10:02:27.064Z,3.38
2023-05-19T10:04:56.154Z,3.00
2023-05-19T10:07:25.122Z,2.95
2023-05-19T10:09:56.584Z,2.80
2023-05-19T10:12:27.979Z,2.80
2023-05-19T10:14:56.554Z,3.03
2023-05-19T10:17:26.122Z,3.10
2023-05-19T10:19:54.751Z,3.00
2023-05-19T10:22:22.569Z,2.70
2023-05-19T10:24:50.538Z,2.85
2023-05-19T10:27:19.389Z,2.80
2023-05-19T10:29:51.348Z,2.42
2023-05-19T10:32:24.153Z,2.75
2023-05-19T10:35:17.626Z,2.80
2023-05-19T10:37:51.890Z,2.70
2023-05-19T10:40:27.492Z,2.47
2023-05-19T10:43:04.100Z,3.17
2023-05-19T10:45:37.616Z,2.88
2023-05-19T10:48:05.680Z,3.10
2023-05-19T10:50:37.662Z,2.60
2023-05-19T10:53:05.502Z,2.85
2023-05-19T10:55:47.528Z,2.55
2023-05-19T10:58:15.539Z,2.90
2023-05-19T11:00:44.697Z,2.45
2023-05-19T11:03:16.240Z,3.00
2023-05-19T11:05:45.687Z,2.90
2023-05-19T11:08:13.971Z,2.58
2023-05-19T11:10:45.327Z,2.72
2023-05-19T11:13:22.701Z,2.80
2023-05-19T11:15:52.872Z,3.05
2023-05-19T11:18:21.299Z,3.00
2023-05-19T11:20:58.580Z,2.45
2023-05-19T11:23:26.730Z,2.72
2023-05-19T11:25:54.766Z,2.80
2023-05-19T11:28:25.941Z,2.88
2023-05-19T11:30:57.521Z,2.50
2023-05-19T11:33:27.217Z,2.67
2023-05-19T11:35:57.943Z,2.65
2023-05-19T11:38:26.005Z,3.55
2023-05-19T11:40:54.422Z,3.00
2023-05-19T11:43:24.294Z,2.72
2023-05-19T11:45:52.280Z,2.80
2023-05-19T11:48:23.684Z,2.72
2023-05-19T11:50:52.407Z,2.60
2023-05-19T11:53:20.991Z,2.58
2023-05-19T11:55:49.785Z,3.03
2023-05-19T11:58:18.034Z,2.58
2023-05-19T12:00:47.746Z,2.47
2023-05-19T12:03:17.440Z,2.40
2023-05-19T12:05:49.861Z,2.63
2023-05-19T12:08:18.549Z,2.80
2023-05-19T12:10:49.163Z,2.55
2023-05-19T12:13:16.829Z,2.42
2023-05-19T12:15:44.542Z,2.60
2023-05-19T12:18:12.394Z,2.58
2023-05-19T12:20:40.265Z,2.30
2023-05-19T12:23:09.890Z,2.90
2023-05-19T12:25:38.334Z,2.72
2023-05-19T12:28:06.424Z,2.67
2023-05-19T12:30:35.231Z,3.70
2023-05-19T12:33:03.890Z,4.47
2023-05-19T12:35:33.502Z,2.80
2023-05-19T12:38:04.690Z,4.53
2023-05-19T12:40:35.129Z,5.72
2023-05-19T12:43:03.411Z,7.50
2023-05-19T12:45:35.571Z,2.38
2023-05-19T12:48:04.750Z,2.40
2023-05-19T12:50:32.880Z,2.53
2023-05-19T12:53:00.846Z,3.08
2023-05-19T12:55:28.554Z,2.05
2023-05-19T12:57:59.105Z,2.50
2023-05-19T13:00:28.997Z,2.47
2023-05-19T13:03:00.278Z,2.67
2023-05-19T13:05:29.205Z,2.65
2023-05-19T13:07:58.312Z,2.45
2023-05-19T13:10:28.013Z,2.42
2023-05-19T13:12:57.425Z,2.85
2023-05-19T13:15:27.068Z,2.42
2023-05-19T13:17:55.541Z,2.90
2023-05-19T13:20:24.300Z,2.70
2023-05-19T13:22:52.825Z,2.40
2023-05-19T13:25:21.339Z,2.60
2023-05-19T13:27:49.913Z,2.72
2023-05-19T13:30:19.538Z,3.13
2023-05-19T13:32:47.276Z,2.58
2023-05-19T13:35:15.997Z,2.58
2023-05-19T13:37:43.994Z,3.00
2023-05-19T13:40:12.591Z,3.10
2023-05-19T13:42:40.570Z,2.60
2023-05-19T13:45:09.633Z,2.25
2023-05-19T13:47:39.759Z,2.65
2023-05-19T13:50:08.560Z,2.38
2023-05-19T13:52:36.326Z,2.78
2023-05-19T13:55:04.169Z,2.45
2023-05-19T13:57:31.884Z,2.40
2023-05-19T14:00:02.746Z,2.70
2023-05-19T14:02:32.094Z,2.50
2023-05-19T14:05:01.811Z,2.80
2023-05-19T14:07:30.129Z,2.65
2023-05-19T14:09:57.800Z,2.78
2023-05-19T14:12:35.372Z,3.05
2023-05-19T14:15:09.156Z,2.83
2023-05-19T14:17:37.565Z,2.60
2023-05-19T14:20:08.016Z,2.83
2023-05-19T14:22:35.639Z,2.72
2023-05-19T14:25:03.830Z,2.67
2023-05-19T14:27:31.584Z,2.97
2023-05-19T14:29:59.374Z,2.60
2023-05-19T14:32:30.082Z,2.40
2023-05-19T14:34:58.164Z,2.58
2023-05-19T14:37:28.931Z,2.67
2023-05-19T14:40:01.344Z,2.70
2023-05-19T14:42:29.040Z,2.80
2023-05-19T14:44:56.939Z,2.80
2023-05-19T14:47:26.201Z,2.63
2023-05-19T14:49:54.701Z,2.38
2023-05-19T14:52:22.705Z,2.83
2023-05-19T14:54:51.807Z,2.80
2023-05-19T14:57:19.555Z,2.60
2023-05-19T14:59:47.250Z,2.72
2023-05-19T15:02:14.924Z,2.83
2023-05-19T15:04:42.824Z,2.83
2023-05-19T15:07:11.090Z,2.50
2023-05-19T15:09:39.135Z,2.50
2023-05-19T15:12:08.714Z,2.20
2023-05-19T15:14:36.425Z,2.63
2023-05-19T15:17:04.156Z,2.80
2023-05-19T15:19:32.075Z,2.72
2023-05-19T15:21:59.894Z,2.45
2023-05-19T15:24:28.112Z,3.00
2023-05-19T15:26:56.457Z,2.67
2023-05-19T15:29:25.545Z,2.40
2023-05-19T15:31:53.385Z,2.60
2023-05-19T15:34:21.468Z,2.60
2023-05-19T15:36:49.282Z,2.60
2023-05-19T15:39:17.040Z,2.65
2023-05-19T15:41:44.711Z,2.65
2023-05-19T15:44:12.385Z,2.45
2023-05-19T15:46:41.524Z,2.80
2023-05-19T15:49:09.368Z,2.20
2023-05-19T15:51:40.723Z,2.40
2023-05-19T15:54:08.410Z,2.20
2023-05-19T15:56:36.093Z,2.40
2023-05-19T15:59:03.804Z,2.33
2023-05-19T16:01:31.658Z,2.88
2023-05-19T16:04:03.572Z,2.50
2023-05-19T16:06:31.640Z,2.58
2023-05-19T16:08:59.404Z,2.90
2023-05-19T16:11:27.277Z,2.72
2023-05-19T16:13:54.955Z,2.42
2023-05-19T16:16:22.697Z,2.72
2023-05-19T16:18:50.550Z,2.22
2023-05-19T16:21:19.649Z,2.53
2023-05-19T16:23:47.553Z,2.22
2023-05-19T16:26:15.356Z,2.30
2023-05-19T16:28:43.008Z,2.92
2023-05-19T16:31:10.797Z,2.75
2023-05-19T16:33:38.541Z,2.70
2023-05-19T16:36:06.468Z,2.50
2023-05-19T16:38:35.488Z,3.05
2023-05-19T16:41:05.169Z,4.50
2023-05-19T16:43:33.424Z,2.97
2023-05-19T16:46:03.404Z,3.00
2023-05-19T16:48:31.374Z,2.70
2023-05-19T16:50:59.876Z,2.90
2023-05-19T16:53:27.802Z,2.75
2023-05-19T16:55:58.963Z,2.45
2023-05-19T16:58:28.006Z,2.33
2023-05-19T17:00:57.736Z,2.80
2023-05-19T17:03:25.674Z,2.85
2023-05-19T17:05:53.479Z,3.10
2023-05-19T17:08:21.218Z,2.40
2023-05-19T17:10:48.946Z,2.28
2023-05-19T17:13:17.996Z,2.63
2023-05-19T17:15:45.673Z,2.58
2023-05-19T17:18:13.421Z,2.30
2023-05-19T17:20:41.578Z,2.60
2023-05-19T17:23:09.341Z,2.38
2023-05-19T17:25:37.188Z,2.20
2023-05-19T17:28:05.159Z,2.33
2023-05-19T17:30:34.695Z,2.13
2023-05-19T17:33:02.643Z,2.53
2023-05-19T17:35:30.292Z,2.60
2023-05-19T17:37:58.021Z,2.10
2023-05-19T17:40:25.951Z,2.58
2023-05-19T17:42:53.648Z,2.55
2023-05-19T17:45:21.511Z,2.42
2023-05-19T17:47:50.548Z,2.72
2023-05-19T17:50:18.294Z,2.45
2023-05-19T17:52:46.478Z,2.40
2023-05-19T17:55:14.915Z,2.40
2023-05-19T17:57:45.418Z,2.88
2023-05-19T18:00:14.272Z,2.33
2023-05-19T18:02:42.433Z,2.30
2023-05-19T18:05:12.858Z,2.95
2023-05-19T18:07:43.149Z,2.40
2023-05-19T18:10:12.730Z,2.65
2023-05-19T18:12:40.431Z,2.30
2023-05-19T18:15:08.887Z,2.67
2023-05-19T18:17:36.646Z,2.63
2023-05-19T18:20:05.304Z,2.53
2023-05-19T18:22:34.349Z,2.42
2023-05-19T18:25:02.034Z,2.30
2023-05-19T18:27:29.830Z,2.60
2023-05-19T18:29:57.673Z,2.45
2023-05-19T18:32:25.359Z,2.38
2023-05-19T18:34:53.128Z,2.33
2023-05-19T18:37:20.815Z,2.50
2023-05-19T18:39:49.905Z,2.50
2023-05-19T18:42:17.615Z,2.63
2023-05-19T18:44:46.764Z,2.78
2023-05-19T18:47:15.053Z,2.50
2023-05-19T18:49:43.156Z,2.20
2023-05-19T18:52:11.097Z,2.20
2023-05-19T18:54:40.544Z,2.42
2023-05-19T18:57:09.816Z,1.98
2023-05-19T18:59:37.520Z,2.08
2023-05-19T19:02:05.385Z,2.45
2023-05-19T19:04:33.169Z,2.17
2023-05-19T19:07:01.322Z,1.95
2023-05-19T19:09:29.041Z,2.50
2023-05-19T19:11:56.741Z,2.30
2023-05-19T19:14:25.723Z,2.63
2023-05-19T19:16:53.539Z,2.65
2023-05-19T19:19:23.638Z,2.20
2023-05-19T19:21:51.585Z,2.88
2023-05-19T19:24:19.234Z,2.33
2023-05-19T19:26:46.910Z,2.22
2023-05-19T19:29:16.656Z,2.00
2023-05-19T19:31:45.808Z,2.50
2023-05-19T19:34:13.625Z,2.20
2023-05-19T19:36:41.314Z,2.45
2023-05-19T19:39:09.461Z,2.67
2023-05-19T19:41:37.512Z,2.50
2023-05-19T19:44:05.600Z,2.30
2023-05-19T19:46:33.322Z,2.08
2023-05-19T19:49:02.459Z,2.17
2023-05-19T19:51:30.263Z,2.33
2023-05-19T19:53:58.151Z,2.50
2023-05-19T19:56:27.511Z,2.22
2023-05-19T19:58:56.870Z,2.10
2023-05-19T20:01:27.515Z,2.55
2023-05-19T20:03:55.877Z,2.58
2023-05-19T20:06:25.160Z,2.10
2023-05-19T20:08:52.858Z,2.23
2023-05-19T20:11:22.856Z,2.47
2023-05-19T20:13:50.593Z,2.30
2023-05-19T20:16:18.327Z,2.30
2023-05-19T20:18:46.141Z,2.30
2023-05-19T20:21:13.909Z,2.65
2023-05-19T20:23:43.073Z,2.15
2023-05-19T20:26:13.434Z,2.80
2023-05-19T20:28:41.605Z,2.10
2023-05-19T20:31:09.810Z,2.05
2023-05-19T20:33:37.448Z,2.27
2023-05-19T20:36:06.553Z,2.40
2023-05-19T20:38:34.307Z,2.30
2023-05-19T20:41:03.865Z,2.20
2023-05-19T20:43:32.810Z,3.00
2023-05-19T20:46:01.625Z,2.55
2023-05-19T20:50:57.361Z,2.50
2023-05-19T20:53:25.108Z,2.38
2023-05-19T20:55:53.150Z,2.30
2023-05-19T20:58:22.255Z,2.20
2023-05-19T21:00:56.790Z,2.30
2023-05-19T21:03:24.789Z,2.20
2023-05-19T21:05:52.421Z,2.30
2023-05-19T21:08:20.128Z,2.20
2023-05-19T21:10:48.001Z,2.50
2023-05-19T21:13:15.678Z,2.60
2023-05-19T21:15:44.712Z,2.10
2023-05-19T21:18:13.251Z,2.17
2023-05-19T21:20:42.001Z,2.30
2023-05-19T21:23:09.710Z,2.10
2023-05-19T21:25:37.412Z,2.20
2023-05-19T21:28:06.024Z,2.17
2023-05-19T21:30:33.997Z,2.33
2023-05-19T21:33:03.324Z,2.10
2023-05-19T21:35:31.418Z,2.23
2023-05-19T21:38:03.878Z,2.50
2023-05-19T21:40:36.809Z,2.13
2023-05-19T21:43:05.841Z,2.50
2023-05-19T21:45:33.538Z,2.60
2023-05-19T21:48:01.258Z,2.10
2023-05-19T21:50:36.548Z,2.20
2023-05-19T21:53:04.311Z,2.00
2023-05-19T21:55:31.985Z,2.10
2023-05-19T21:58:01.654Z,2.03
2023-05-19T22:00:30.324Z,1.97
2023-05-19T22:02:58.139Z,2.50
2023-05-19T22:05:25.896Z,2.30
2023-05-19T22:07:54.915Z,2.30
2023-05-19T22:10:22.876Z,2.33
2023-05-19T22:12:50.681Z,2.30
2023-05-19T22:15:18.500Z,2.20
2023-05-19T22:17:46.232Z,2.00
2023-05-19T22:20:13.924Z,2.00
2023-05-19T22:22:42.048Z,2.37
2023-05-19T22:25:11.209Z,1.90
2023-05-19T22:27:38.892Z,2.10
2023-05-19T22:30:08.747Z,1.80
2023-05-19T22:32:36.990Z,2.07
2023-05-19T22:35:06.548Z,1.87
2023-05-19T22:37:34.486Z,2.27
2023-05-19T22:40:02.138Z,2.17
2023-05-19T22:42:31.344Z,2.13
2023-05-19T22:44:59.122Z,1.90
2023-05-19T22:47:26.961Z,2.03
2023-05-19T22:49:55.625Z,2.40
2023-05-19T22:52:24.782Z,2.17
2023-05-19T22:54:52.445Z,2.70
2023-05-19T22:57:20.211Z,2.17
2023-05-19T22:59:49.250Z,2.20
2023-05-19T23:02:16.887Z,2.10
2023-05-19T23:04:44.539Z,2.07
2023-05-19T23:07:12.232Z,1.80
2023-05-19T23:09:39.923Z,2.23
2023-05-19T23:12:08.191Z,1.90
2023-05-19T23:14:36.140Z,1.90
2023-05-19T23:17:05.502Z,2.40
2023-05-19T23:19:34.953Z,1.80
2023-05-19T23:22:02.591Z,1.93
2023-05-19T23:24:30.478Z,1.93
2023-05-19T23:26:58.267Z,2.07
2023-05-19T23:29:26.206Z,1.80
2023-05-19T23:31:54.023Z,2.00
2023-05-19T23:34:23.171Z,2.23
2023-05-19T23:36:50.864Z,2.10
2023-05-19T23:39:18.543Z,1.83
2023-05-19T23:41:46.269Z,2.20
2023-05-19T23:44:13.896Z,2.00
2023-05-19T23:46:41.904Z,1.80
2023-05-19T23:49:09.649Z,2.33
2023-05-19T23:51:38.758Z,1.87
2023-05-19T23:54:06.494Z,1.83
2023-05-19T23:56:34.203Z,1.80
2023-05-19T23:59:01.888Z,1.90
